createdAt,value
2017-05-12T00:00:12.751Z,0
2017-05-12T00:01:22.149Z,0
2017-05-12T00:02:32.173Z,0
2017-05-12T00:03:42.199Z,0
2017-05-12T00:04:51.916Z,0
2017-05-12T00:06:01.627Z,0
2017-05-12T00:07:11.964Z,0
2017-05-12T00:08:21.378Z,0
2017-05-12T00:09:30.788Z,0
2017-05-12T00:10:40.188Z,0
2017-05-12T00:11:49.586Z,0
2017-05-12T00:12:59.614Z,0
2017-05-12T00:14:09.951Z,0
2017-05-12T00:15:19.980Z,0
2017-05-12T00:16:30.003Z,0
2017-05-12T00:17:40.343Z,0
2017-05-12T00:18:50.068Z,0
2017-05-12T00:19:59.461Z,0
2017-05-12T00:21:09.489Z,0
2017-05-12T00:22:19.202Z,0
2017-05-12T00:23:28.913Z,0
2017-05-12T00:24:38.310Z,0
2017-05-12T00:25:48.339Z,0
2017-05-12T00:26:58.048Z,0
2017-05-12T00:28:07.764Z,0
2017-05-12T00:29:17.486Z,0
2017-05-12T00:30:26.879Z,0
2017-05-12T00:31:36.585Z,0
2017-05-12T00:32:46.927Z,0
2017-05-12T00:33:56.345Z,0
2017-05-12T00:35:06.378Z,0
2017-05-12T00:36:16.399Z,0
2017-05-12T00:37:26.118Z,0
2017-05-12T00:38:35.832Z,0
2017-05-12T00:39:46.178Z,0
2017-05-12T00:40:56.211Z,0
2017-05-12T00:42:06.557Z,0
2017-05-12T00:43:15.948Z,0
2017-05-12T00:44:25.967Z,0
2017-05-12T00:45:35.989Z,0
2017-05-12T00:46:45.703Z,0
2017-05-12T00:47:55.734Z,0
2017-05-12T00:49:05.761Z,0
2017-05-12T00:50:15.153Z,0
2017-05-12T00:51:25.180Z,0
2017-05-12T00:52:35.205Z,0
2017-05-12T00:53:44.913Z,0
2017-05-12T00:54:54.627Z,0
2017-05-12T00:56:04.971Z,0
2017-05-12T00:57:14.052Z,0
2017-05-12T00:58:24.083Z,0
2017-05-12T00:59:32.853Z,0
2017-05-12T01:00:43.195Z,0
2017-05-12T01:01:52.283Z,0
2017-05-12T01:03:01.692Z,0
2017-05-12T01:04:11.093Z,0
2017-05-12T01:05:21.115Z,0
2017-05-12T01:06:30.508Z,0
2017-05-12T01:07:40.218Z,0
2017-05-12T01:08:49.620Z,0
2017-05-12T01:09:59.972Z,0
2017-05-12T01:11:09.694Z,0
2017-05-12T01:12:19.410Z,0
2017-05-12T01:13:29.126Z,0
2017-05-12T01:14:38.843Z,0
2017-05-12T01:15:48.567Z,0
2017-05-12T01:16:57.647Z,0
2017-05-12T01:18:07.039Z,0
2017-05-12T01:19:17.073Z,0
2017-05-12T01:20:26.786Z,0
2017-05-12T01:21:36.500Z,0
2017-05-12T01:22:46.835Z,0
2017-05-12T01:23:56.552Z,0
2017-05-12T01:25:05.953Z,0
2017-05-12T01:26:15.980Z,0
2017-05-12T01:27:25.693Z,0
2017-05-12T01:28:35.406Z,0
2017-05-12T01:29:45.115Z,0
2017-05-12T01:30:54.513Z,0
2017-05-12T01:32:04.859Z,0
2017-05-12T01:33:14.576Z,0
2017-05-12T01:34:24.596Z,0
2017-05-12T01:35:34.304Z,0
2017-05-12T01:36:44.013Z,0
2017-05-12T01:37:53.419Z,0
2017-05-12T01:39:03.135Z,0
2017-05-12T01:40:12.536Z,0
2017-05-12T01:41:22.251Z,0
2017-05-12T01:42:32.272Z,0
2017-05-12T01:43:41.669Z,0
2017-05-12T01:44:51.692Z,0
2017-05-12T01:46:01.409Z,0
2017-05-12T01:47:11.121Z,0
2017-05-12T01:48:21.144Z,0
2017-05-12T01:49:30.855Z,0
2017-05-12T01:50:40.884Z,0
2017-05-12T01:51:50.631Z,0
2017-05-12T01:53:00.667Z,0
2017-05-12T01:54:09.752Z,0
2017-05-12T01:55:19.830Z,0
2017-05-12T01:56:29.542Z,0
2017-05-12T01:57:38.944Z,0
2017-05-12T01:58:48.347Z,0
2017-05-12T01:59:58.378Z,0
2017-05-12T02:01:08.093Z,0
2017-05-12T02:02:17.545Z,0
2017-05-12T02:03:27.895Z,0
2017-05-12T02:04:37.611Z,0
2017-05-12T02:05:47.633Z,0
2017-05-12T02:06:56.718Z,0
2017-05-12T02:08:07.058Z,0
2017-05-12T02:09:17.093Z,0
2017-05-12T02:10:26.814Z,0
2017-05-12T02:11:36.211Z,0
2017-05-12T02:12:46.249Z,0
2017-05-12T02:13:56.281Z,0
2017-05-12T02:15:06.314Z,0
2017-05-12T02:16:16.079Z,0
2017-05-12T02:17:26.422Z,0
2017-05-12T02:18:35.865Z,0
2017-05-12T02:19:45.896Z,0
2017-05-12T02:20:55.656Z,0
2017-05-12T02:22:05.993Z,0
2017-05-12T02:23:16.019Z,0
2017-05-12T02:24:25.727Z,0
2017-05-12T02:25:35.754Z,0
2017-05-12T02:26:45.458Z,0
2017-05-12T02:27:54.860Z,0
2017-05-12T02:29:05.196Z,0
2017-05-12T02:30:14.597Z,0
2017-05-12T02:31:24.624Z,0
2017-05-12T02:32:34.030Z,0
2017-05-12T02:33:44.366Z,0
2017-05-12T02:34:54.079Z,0
2017-05-12T02:36:03.791Z,0
2017-05-12T02:37:13.818Z,0
2017-05-12T02:38:23.847Z,0
2017-05-12T02:39:34.187Z,0
2017-05-12T02:40:44.215Z,0
2017-05-12T02:41:53.613Z,0
2017-05-12T02:43:03.644Z,0
2017-05-12T02:44:13.351Z,0
2017-05-12T02:45:23.060Z,0
2017-05-12T02:46:33.083Z,0
2017-05-12T02:47:42.806Z,0
2017-05-12T02:48:52.839Z,0
2017-05-12T02:50:02.549Z,0
2017-05-12T02:51:12.264Z,0
2017-05-12T02:52:21.659Z,0
2017-05-12T02:53:31.053Z,0
2017-05-12T02:54:40.777Z,0
2017-05-12T02:55:50.808Z,0
2017-05-12T02:57:00.241Z,0
2017-05-12T02:58:09.645Z,0
2017-05-12T02:59:19.675Z,0
2017-05-12T03:00:29.387Z,0
2017-05-12T03:01:39.420Z,0
2017-05-12T03:02:49.133Z,0
2017-05-12T03:03:59.472Z,0
2017-05-12T03:05:09.816Z,0
2017-05-12T03:06:19.834Z,0
2017-05-12T03:07:30.174Z,0
2017-05-12T03:08:39.250Z,0
2017-05-12T03:09:48.648Z,0
2017-05-12T03:10:58.043Z,0
2017-05-12T03:12:07.797Z,0
2017-05-12T03:13:17.826Z,0
2017-05-12T03:14:27.867Z,0
2017-05-12T03:15:38.209Z,0
2017-05-12T03:16:47.293Z,0
2017-05-12T03:17:57.009Z,0
2017-05-12T03:19:06.447Z,0
2017-05-12T03:20:15.845Z,0
2017-05-12T03:21:24.965Z,0
2017-05-12T03:22:34.369Z,0
2017-05-12T03:23:44.088Z,0
2017-05-12T03:24:54.121Z,0
2017-05-12T03:26:04.187Z,0
2017-05-12T03:27:14.216Z,0
2017-05-12T03:28:23.618Z,0
2017-05-12T03:29:33.342Z,0
2017-05-12T03:30:43.061Z,0
2017-05-12T03:31:52.768Z,0
2017-05-12T03:33:02.801Z,0
2017-05-12T03:34:13.141Z,0
2017-05-12T03:35:23.161Z,0
2017-05-12T03:36:32.872Z,0
2017-05-12T03:37:43.220Z,0
2017-05-12T03:38:52.942Z,0
2017-05-12T03:40:02.968Z,0
2017-05-12T03:41:12.370Z,0
2017-05-12T03:42:22.082Z,5
2017-05-12T03:43:31.797Z,5
2017-05-12T03:44:41.826Z,5
2017-05-12T03:45:52.166Z,5
2017-05-12T03:47:02.201Z,5
2017-05-12T03:48:12.231Z,10
2017-05-12T03:49:22.262Z,10
2017-05-12T03:50:32.282Z,10
2017-05-12T03:51:42.626Z,10
2017-05-12T03:52:52.345Z,10
2017-05-12T03:54:02.373Z,15
2017-05-12T03:55:12.433Z,15
2017-05-12T03:56:22.467Z,15
2017-05-12T03:57:32.223Z,15
2017-05-12T03:58:41.943Z,15
2017-05-12T03:59:51.340Z,20
2017-05-12T04:01:01.051Z,20
2017-05-12T04:02:10.764Z,20
2017-05-12T04:03:20.161Z,25
2017-05-12T04:04:29.560Z,25
2017-05-12T04:05:39.270Z,25
2017-05-12T04:06:49.295Z,30
2017-05-12T04:07:58.706Z,30
2017-05-12T04:09:07.792Z,30
2017-05-12T04:10:18.133Z,35
2017-05-12T04:11:28.184Z,35
2017-05-12T04:12:38.216Z,35
2017-05-12T04:13:48.240Z,40
2017-05-12T04:14:58.268Z,40
2017-05-12T04:16:08.608Z,40
2017-05-12T04:17:18.325Z,40
2017-05-12T04:18:28.035Z,45
2017-05-12T04:19:37.743Z,45
2017-05-12T04:20:47.447Z,50
2017-05-12T04:21:56.843Z,55
2017-05-12T04:23:06.874Z,60
2017-05-12T04:24:15.967Z,60
2017-05-12T04:25:25.678Z,65
2017-05-12T04:26:35.698Z,65
2017-05-12T04:27:45.728Z,70
2017-05-12T04:28:55.788Z,70
2017-05-12T04:30:05.499Z,70
2017-05-12T04:31:14.891Z,70
2017-05-12T04:32:24.343Z,70
2017-05-12T04:33:33.781Z,70
2017-05-12T04:34:44.130Z,70
2017-05-12T04:35:54.155Z,75
2017-05-12T04:37:03.875Z,80
2017-05-12T04:38:13.270Z,85
2017-05-12T04:39:23.311Z,85
2017-05-12T04:40:33.030Z,90
2017-05-12T04:41:42.744Z,90
2017-05-12T04:42:52.457Z,90
2017-05-12T04:44:02.483Z,90
2017-05-12T04:45:12.202Z,95
2017-05-12T04:46:21.911Z,95
2017-05-12T04:47:31.312Z,95
2017-05-12T04:48:41.343Z,105
2017-05-12T04:49:51.369Z,120
2017-05-12T04:51:01.389Z,135
2017-05-12T04:52:11.098Z,140
2017-05-12T04:53:21.124Z,150
2017-05-12T04:54:30.840Z,160
2017-05-12T04:55:40.551Z,170
2017-05-12T04:56:49.637Z,175
2017-05-12T04:57:59.660Z,180
2017-05-12T04:59:09.689Z,190
2017-05-12T05:00:19.399Z,195
2017-05-12T05:01:29.138Z,200
2017-05-12T05:02:38.855Z,205
2017-05-12T05:03:48.895Z,205
2017-05-12T05:04:58.922Z,205
2017-05-12T05:06:09.258Z,205
2017-05-12T05:07:18.972Z,205
2017-05-12T05:08:29.320Z,205
2017-05-12T05:09:38.410Z,210
2017-05-12T05:10:48.749Z,210
2017-05-12T05:11:58.771Z,215
2017-05-12T05:13:08.533Z,220
2017-05-12T05:14:18.560Z,220
2017-05-12T05:15:28.274Z,225
2017-05-12T05:16:37.672Z,230
2017-05-12T05:17:47.706Z,225
2017-05-12T05:18:57.102Z,230
2017-05-12T05:20:06.817Z,235
2017-05-12T05:21:16.837Z,240
2017-05-12T05:22:26.544Z,240
2017-05-12T05:23:36.253Z,245
2017-05-12T05:24:46.290Z,250
2017-05-12T05:25:55.730Z,250
2017-05-12T05:27:05.133Z,250
2017-05-12T05:28:14.849Z,250
2017-05-12T05:29:24.572Z,250
2017-05-12T05:30:34.912Z,245
2017-05-12T05:31:44.625Z,240
2017-05-12T05:32:54.663Z,240
2017-05-12T05:34:04.999Z,245
2017-05-12T05:35:14.404Z,250
2017-05-12T05:36:24.423Z,250
2017-05-12T05:37:33.821Z,245
2017-05-12T05:38:43.846Z,240
2017-05-12T05:39:53.562Z,240
2017-05-12T05:41:03.901Z,240
2017-05-12T05:42:13.610Z,240
2017-05-12T05:43:22.385Z,235
2017-05-12T05:44:32.104Z,230
2017-05-12T05:45:41.820Z,210
2017-05-12T05:46:51.215Z,205
2017-05-12T05:48:01.551Z,205
2017-05-12T05:49:11.259Z,210
2017-05-12T05:50:20.975Z,215
2017-05-12T05:51:30.066Z,205
2017-05-12T05:52:40.104Z,190
2017-05-12T05:53:50.142Z,170
2017-05-12T05:55:00.171Z,170
2017-05-12T05:56:10.193Z,180
2017-05-12T05:57:19.904Z,190
2017-05-12T05:58:29.931Z,205
2017-05-12T05:59:39.325Z,225
2017-05-12T06:00:49.354Z,255
2017-05-12T06:01:59.069Z,275
2017-05-12T06:03:08.472Z,280
2017-05-12T06:04:18.500Z,300
2017-05-12T06:05:28.208Z,300
2017-05-12T06:06:37.608Z,265
2017-05-12T06:07:47.315Z,200
2017-05-12T06:08:57.024Z,165
2017-05-12T06:10:07.048Z,170
2017-05-12T06:11:16.753Z,190
2017-05-12T06:12:26.777Z,210
2017-05-12T06:13:36.808Z,260
2017-05-12T06:14:46.524Z,300
2017-05-12T06:15:56.233Z,330
2017-05-12T06:17:06.261Z,340
2017-05-12T06:18:15.658Z,290
2017-05-12T06:19:25.998Z,260
2017-05-12T06:20:35.084Z,270
2017-05-12T06:21:45.471Z,275
2017-05-12T06:22:55.493Z,295
2017-05-12T06:24:05.210Z,315
2017-05-12T06:25:14.602Z,330
2017-05-12T06:26:24.625Z,360
2017-05-12T06:27:33.713Z,370
2017-05-12T06:28:42.792Z,365
2017-05-12T06:29:52.508Z,385
2017-05-12T06:31:01.955Z,390
2017-05-12T06:32:11.701Z,400
2017-05-12T06:33:21.415Z,385
2017-05-12T06:34:31.138Z,350
2017-05-12T06:35:41.163Z,290
2017-05-12T06:36:51.186Z,250
2017-05-12T06:38:01.225Z,230
2017-05-12T06:39:11.255Z,225
2017-05-12T06:40:21.601Z,225
2017-05-12T06:41:31.311Z,230
2017-05-12T06:42:40.709Z,235
2017-05-12T06:43:50.741Z,240
2017-05-12T06:45:00.454Z,255
2017-05-12T06:46:10.481Z,245
2017-05-12T06:47:19.876Z,245
2017-05-12T06:48:29.902Z,260
2017-05-12T06:49:39.936Z,285
2017-05-12T06:50:49.654Z,320
2017-05-12T06:51:59.372Z,360
2017-05-12T06:53:09.401Z,385
2017-05-12T06:54:18.798Z,425
2017-05-12T06:55:28.193Z,430
2017-05-12T06:56:38.542Z,445
2017-05-12T06:57:48.578Z,480
2017-05-12T06:58:58.606Z,515
2017-05-12T07:00:08.634Z,515
2017-05-12T07:01:18.034Z,485
2017-05-12T07:02:27.749Z,460
2017-05-12T07:03:37.141Z,445
2017-05-12T07:04:47.488Z,460
2017-05-12T07:05:57.518Z,485
2017-05-12T07:07:07.860Z,480
2017-05-12T07:08:17.897Z,440
2017-05-12T07:09:28.237Z,440
2017-05-12T07:10:37.639Z,445
2017-05-12T07:11:47.668Z,415
2017-05-12T07:12:57.699Z,415
2017-05-12T07:14:07.421Z,405
2017-05-12T07:15:17.129Z,400
2017-05-12T07:16:26.527Z,380
2017-05-12T07:17:36.560Z,355
2017-05-12T07:18:46.654Z,340
2017-05-12T07:19:56.053Z,370
2017-05-12T07:21:06.401Z,345
2017-05-12T07:22:16.116Z,325
2017-05-12T07:23:26.512Z,310
2017-05-12T07:24:35.914Z,320
2017-05-12T07:25:46.246Z,320
2017-05-12T07:26:55.966Z,300
2017-05-12T07:28:05.683Z,280
2017-05-12T07:29:14.449Z,275
2017-05-12T07:30:23.849Z,280
2017-05-12T07:31:33.876Z,355
2017-05-12T07:32:43.595Z,315
2017-05-12T07:33:52.685Z,335
2017-05-12T07:35:02.084Z,340
2017-05-12T07:36:12.114Z,340
2017-05-12T07:37:21.515Z,355
2017-05-12T07:38:31.538Z,380
2017-05-12T07:39:41.563Z,455
2017-05-12T07:40:51.600Z,550
2017-05-12T07:42:01.365Z,755
2017-05-12T07:43:11.398Z,815
2017-05-12T07:44:21.755Z,860
2017-05-12T07:45:31.156Z,810
2017-05-12T07:46:40.869Z,810
2017-05-12T07:47:50.579Z,635
2017-05-12T07:48:59.979Z,545
2017-05-12T07:50:09.425Z,565
2017-05-12T07:51:19.143Z,500
2017-05-12T07:52:28.542Z,530
2017-05-12T07:53:38.288Z,610
2017-05-12T07:54:48.004Z,695
2017-05-12T07:55:58.042Z,810
2017-05-12T07:57:07.763Z,875
2017-05-12T07:58:17.475Z,830
2017-05-12T07:59:27.500Z,700
2017-05-12T08:00:37.526Z,590
2017-05-12T08:01:47.241Z,500
2017-05-12T08:02:56.958Z,520
2017-05-12T08:04:07.306Z,510
2017-05-12T08:05:16.710Z,695
2017-05-12T08:06:26.429Z,765
2017-05-12T08:07:35.834Z,750
2017-05-12T08:08:45.242Z,690
2017-05-12T08:09:54.332Z,645
2017-05-12T08:11:04.360Z,620
2017-05-12T08:12:14.386Z,685
2017-05-12T08:13:24.429Z,660
2017-05-12T08:14:34.466Z,725
2017-05-12T08:15:44.503Z,835
2017-05-12T08:16:54.219Z,740
2017-05-12T08:18:04.567Z,620
2017-05-12T08:19:14.607Z,635
2017-05-12T08:20:24.325Z,620
2017-05-12T08:21:34.041Z,620
2017-05-12T08:22:44.070Z,585
2017-05-12T08:23:54.098Z,565
2017-05-12T08:25:03.808Z,600
2017-05-12T08:26:13.839Z,655
2017-05-12T08:27:23.558Z,555
2017-05-12T08:28:33.591Z,500
2017-05-12T08:29:43.350Z,405
2017-05-12T08:30:52.125Z,360
2017-05-12T08:32:01.528Z,425
2017-05-12T08:33:11.248Z,435
2017-05-12T08:34:20.647Z,495
2017-05-12T08:35:30.373Z,480
2017-05-12T08:36:40.086Z,535
2017-05-12T08:37:49.801Z,500
2017-05-12T08:38:59.831Z,450
2017-05-12T08:40:09.860Z,505
2017-05-12T08:41:19.260Z,645
2017-05-12T08:42:28.981Z,765
2017-05-12T08:43:39.018Z,680
2017-05-12T08:44:49.046Z,585
2017-05-12T08:45:58.488Z,450
2017-05-12T08:47:08.510Z,405
2017-05-12T08:48:17.926Z,390
2017-05-12T08:49:27.649Z,475
2017-05-12T08:50:37.051Z,565
2017-05-12T08:51:47.080Z,560
2017-05-12T08:52:57.419Z,580
2017-05-12T08:54:06.825Z,610
2017-05-12T08:55:16.860Z,490
2017-05-12T08:56:26.893Z,415
2017-05-12T08:57:37.237Z,470
2017-05-12T08:58:47.583Z,550
2017-05-12T08:59:57.307Z,585
2017-05-12T09:01:07.341Z,600
2017-05-12T09:02:17.104Z,750
2017-05-12T09:03:26.828Z,810
2017-05-12T09:04:36.233Z,815
2017-05-12T09:05:46.256Z,825
2017-05-12T09:06:56.285Z,810
2017-05-12T09:08:05.998Z,710
2017-05-12T09:09:15.717Z,765
2017-05-12T09:10:25.114Z,935
2017-05-12T09:11:35.461Z,1195
2017-05-12T09:12:45.495Z,1365
2017-05-12T09:13:55.844Z,995
2017-05-12T09:15:05.252Z,955
2017-05-12T09:16:15.602Z,1400
2017-05-12T09:17:24.697Z,2345
2017-05-12T09:18:34.411Z,2670
2017-05-12T09:19:44.125Z,2705
2017-05-12T09:20:54.160Z,1835
2017-05-12T09:22:03.875Z,1750
2017-05-12T09:23:13.590Z,1600
2017-05-12T09:24:23.303Z,1280
2017-05-12T09:25:33.022Z,1405
2017-05-12T09:26:42.437Z,1670
2017-05-12T09:27:52.153Z,1500
2017-05-12T09:29:01.878Z,1345
2017-05-12T09:30:11.293Z,1650
2017-05-12T09:31:21.324Z,1735
2017-05-12T09:32:31.361Z,1025
2017-05-12T09:33:40.143Z,780
2017-05-12T09:34:49.874Z,635
2017-05-12T09:35:59.912Z,995
2017-05-12T09:37:09.016Z,1085
2017-05-12T09:38:18.730Z,1040
2017-05-12T09:39:28.466Z,1715
2017-05-12T09:40:38.498Z,1565
2017-05-12T09:41:48.532Z,1390
2017-05-12T09:42:58.261Z,1170
2017-05-12T09:44:08.618Z,890
2017-05-12T09:45:18.349Z,715
2017-05-12T09:46:27.438Z,700
2017-05-12T09:47:37.158Z,710
2017-05-12T09:48:47.195Z,740
2017-05-12T09:49:57.547Z,795
2017-05-12T09:51:07.591Z,800
2017-05-12T09:52:17.312Z,740
2017-05-12T09:53:27.336Z,645
2017-05-12T09:54:36.425Z,595
2017-05-12T09:55:46.453Z,595
2017-05-12T09:56:55.544Z,575
2017-05-12T09:58:05.267Z,570
2017-05-12T09:59:14.985Z,590
2017-05-12T10:00:24.386Z,610
2017-05-12T10:01:34.419Z,680
2017-05-12T10:02:44.451Z,1795
2017-05-12T10:03:53.858Z,2015
2017-05-12T10:05:03.895Z,1170
2017-05-12T10:06:13.301Z,1240
2017-05-12T10:07:22.736Z,1715
2017-05-12T10:08:33.086Z,1725
2017-05-12T10:09:43.430Z,2955
2017-05-12T10:10:53.144Z,2165
2017-05-12T10:12:03.186Z,1415
2017-05-12T10:13:12.591Z,1060
2017-05-12T10:14:21.995Z,920
2017-05-12T10:15:32.030Z,845
2017-05-12T10:16:41.754Z,815
2017-05-12T10:17:52.106Z,850
2017-05-12T10:19:01.829Z,875
2017-05-12T10:20:12.184Z,755
2017-05-12T10:21:22.535Z,630
2017-05-12T10:22:32.567Z,500
2017-05-12T10:23:41.968Z,390
2017-05-12T10:24:51.682Z,310
2017-05-12T10:26:01.721Z,265
2017-05-12T10:27:11.754Z,240
2017-05-12T10:28:21.162Z,240
2017-05-12T10:29:30.881Z,235
2017-05-12T10:30:40.602Z,210
2017-05-12T10:31:50.326Z,185
2017-05-12T10:33:00.045Z,170
2017-05-12T10:34:09.762Z,175
2017-05-12T10:35:19.789Z,230
2017-05-12T10:36:29.509Z,305
2017-05-12T10:37:39.854Z,375
2017-05-12T10:38:49.884Z,465
2017-05-12T10:39:59.604Z,500
2017-05-12T10:41:09.319Z,470
2017-05-12T10:42:19.353Z,435
2017-05-12T10:43:28.448Z,415
2017-05-12T10:44:38.487Z,405
2017-05-12T10:45:47.886Z,415
2017-05-12T10:46:57.611Z,445
2017-05-12T10:48:07.950Z,510
2017-05-12T10:49:17.670Z,660
2017-05-12T10:50:27.381Z,2050
2017-05-12T10:51:37.094Z,3155
2017-05-12T10:52:47.121Z,2485
2017-05-12T10:53:56.843Z,2985
2017-05-12T10:55:06.564Z,3075
2017-05-12T10:56:16.285Z,2935
2017-05-12T10:57:25.687Z,2790
2017-05-12T10:58:35.091Z,755
2017-05-12T10:59:44.806Z,635
2017-05-12T11:00:54.531Z,610
2017-05-12T11:02:04.250Z,1495
2017-05-12T11:03:13.973Z,2305
2017-05-12T11:04:23.999Z,2815
2017-05-12T11:05:34.038Z,2880
2017-05-12T11:06:44.068Z,2740
2017-05-12T11:07:53.790Z,1820
2017-05-12T11:09:04.144Z,2675
2017-05-12T11:10:13.549Z,2825
2017-05-12T11:11:23.270Z,2885
2017-05-12T11:12:32.681Z,2825
2017-05-12T11:13:41.783Z,2850
2017-05-12T11:14:51.191Z,2645
2017-05-12T11:16:01.226Z,2820
2017-05-12T11:17:11.261Z,915
2017-05-12T11:18:21.298Z,750
2017-05-12T11:19:31.026Z,735
2017-05-12T11:20:41.066Z,840
2017-05-12T11:21:50.797Z,935
2017-05-12T11:23:00.834Z,915
2017-05-12T11:24:09.920Z,785
2017-05-12T11:25:19.023Z,765
2017-05-12T11:26:29.060Z,780
2017-05-12T11:27:38.789Z,745
2017-05-12T11:28:48.191Z,695
2017-05-12T11:29:58.222Z,670
2017-05-12T11:31:07.947Z,680
2017-05-12T11:32:17.659Z,695
2017-05-12T11:33:27.060Z,735
2017-05-12T11:34:36.780Z,815
2017-05-12T11:35:46.508Z,990
2017-05-12T11:36:56.239Z,3225
2017-05-12T11:38:06.585Z,3185
2017-05-12T11:39:15.982Z,3130
2017-05-12T11:40:26.338Z,3135
2017-05-12T11:41:35.121Z,2925
2017-05-12T11:42:44.534Z,3095
2017-05-12T11:43:54.260Z,2910
2017-05-12T11:45:03.665Z,2720
2017-05-12T11:46:13.696Z,2930
2017-05-12T11:47:24.045Z,3090
2017-05-12T11:48:33.761Z,3040
2017-05-12T11:49:43.481Z,3030
2017-05-12T11:50:52.897Z,3130
2017-05-12T11:52:02.627Z,3205
2017-05-12T11:53:12.354Z,3075
2017-05-12T11:54:22.081Z,3095
2017-05-12T11:55:32.428Z,3030
2017-05-12T11:56:42.787Z,2965
2017-05-12T11:57:52.824Z,2975
2017-05-12T11:59:02.860Z,3005
2017-05-12T12:00:12.904Z,835
2017-05-12T12:01:22.955Z,3110
2017-05-12T12:02:32.683Z,2815
2017-05-12T12:03:42.109Z,1695
2017-05-12T12:04:52.508Z,880
2017-05-12T12:06:02.238Z,1800
2017-05-12T12:07:11.652Z,1140
2017-05-12T12:08:22.002Z,2585
2017-05-12T12:09:32.390Z,2320
2017-05-12T12:10:42.431Z,1050
2017-05-12T12:11:52.159Z,1055
2017-05-12T12:13:01.884Z,1005
2017-05-12T12:14:11.610Z,1615
2017-05-12T12:15:21.332Z,1655
2017-05-12T12:16:30.789Z,3285
2017-05-12T12:17:40.522Z,3115
2017-05-12T12:18:50.244Z,3265
2017-05-12T12:20:00.009Z,1235
2017-05-12T12:21:09.735Z,835
2017-05-12T12:22:19.768Z,755
2017-05-12T12:23:29.500Z,775
2017-05-12T12:24:39.221Z,870
2017-05-12T12:25:48.941Z,935
2017-05-12T12:26:58.674Z,1730
2017-05-12T12:28:08.714Z,3045
2017-05-12T12:29:18.486Z,2915
2017-05-12T12:30:28.515Z,800
2017-05-12T12:31:37.925Z,960
2017-05-12T12:32:47.961Z,865
2017-05-12T12:33:57.676Z,880
2017-05-12T12:35:08.023Z,870
2017-05-12T12:36:17.116Z,885
2017-05-12T12:37:27.155Z,875
2017-05-12T12:38:36.556Z,885
2017-05-12T12:39:46.275Z,2970
2017-05-12T12:40:56.309Z,2865
2017-05-12T12:42:05.723Z,2835
2017-05-12T12:43:15.442Z,2790
2017-05-12T12:44:24.855Z,2730
2017-05-12T12:45:34.257Z,2855
2017-05-12T12:46:43.983Z,2780
2017-05-12T12:47:53.395Z,680
2017-05-12T12:49:03.119Z,625
2017-05-12T12:50:12.837Z,565
2017-05-12T12:51:22.881Z,490
2017-05-12T12:52:32.601Z,420
2017-05-12T12:53:42.005Z,365
2017-05-12T12:54:52.080Z,310
2017-05-12T12:56:02.120Z,280
2017-05-12T12:57:11.843Z,280
2017-05-12T12:58:21.604Z,295
2017-05-12T12:59:31.005Z,305
2017-05-12T13:00:41.047Z,395
2017-05-12T13:01:50.761Z,560
2017-05-12T13:03:00.482Z,2280
2017-05-12T13:04:10.202Z,3075
2017-05-12T13:05:20.234Z,3135
2017-05-12T13:06:30.267Z,3190
2017-05-12T13:07:39.672Z,2770
2017-05-12T13:08:49.076Z,775
2017-05-12T13:09:58.485Z,630
2017-05-12T13:11:08.526Z,590
2017-05-12T13:12:18.876Z,670
2017-05-12T13:13:28.602Z,720
2017-05-12T13:14:38.013Z,1630
2017-05-12T13:15:47.737Z,1095
2017-05-12T13:16:57.462Z,2805
2017-05-12T13:18:07.808Z,2580
2017-05-12T13:19:18.161Z,735
2017-05-12T13:20:28.198Z,720
2017-05-12T13:21:37.927Z,800
2017-05-12T13:22:48.277Z,870
2017-05-12T13:23:58.631Z,875
2017-05-12T13:25:08.676Z,830
2017-05-12T13:26:19.023Z,815
2017-05-12T13:27:28.430Z,805
2017-05-12T13:28:38.147Z,765
2017-05-12T13:29:47.241Z,780
2017-05-12T13:30:56.962Z,775
2017-05-12T13:32:06.701Z,1035
2017-05-12T13:33:15.478Z,905
2017-05-12T13:34:25.518Z,835
2017-05-12T13:35:35.235Z,1875
2017-05-12T13:36:44.687Z,1925
2017-05-12T13:37:54.092Z,955
2017-05-12T13:39:04.124Z,2710
2017-05-12T13:40:14.155Z,810
2017-05-12T13:41:23.874Z,775
2017-05-12T13:42:33.284Z,935
2017-05-12T13:43:42.998Z,970
2017-05-12T13:44:52.721Z,940
2017-05-12T13:46:03.070Z,900
2017-05-12T13:47:12.787Z,905
2017-05-12T13:48:22.826Z,820
2017-05-12T13:49:32.545Z,2700
2017-05-12T13:50:41.632Z,850
2017-05-12T13:51:51.997Z,660
2017-05-12T13:53:01.720Z,575
2017-05-12T13:54:12.068Z,520
2017-05-12T13:55:21.788Z,510
2017-05-12T13:56:31.819Z,530
2017-05-12T13:57:41.552Z,585
2017-05-12T13:58:50.958Z,665
2017-05-12T14:00:00.373Z,785
2017-05-12T14:01:10.413Z,955
2017-05-12T14:02:19.825Z,2925
2017-05-12T14:03:30.177Z,2705
2017-05-12T14:04:39.638Z,2680
2017-05-12T14:05:49.361Z,2520
2017-05-12T14:06:59.086Z,640
2017-05-12T14:08:09.123Z,575
2017-05-12T14:09:19.206Z,640
2017-05-12T14:10:28.633Z,695
2017-05-12T14:11:38.386Z,2665
2017-05-12T14:12:48.110Z,1645
2017-05-12T14:13:57.829Z,2535
2017-05-12T14:15:07.549Z,2410
2017-05-12T14:16:16.962Z,2315
2017-05-12T14:17:27.313Z,1515
2017-05-12T14:18:37.040Z,585
2017-05-12T14:19:47.083Z,515
2017-05-12T14:20:57.464Z,520
2017-05-12T14:22:06.874Z,565
2017-05-12T14:23:16.915Z,690
2017-05-12T14:24:26.972Z,845
2017-05-12T14:25:36.708Z,720
2017-05-12T14:26:47.065Z,635
2017-05-12T14:27:56.168Z,585
2017-05-12T14:29:05.880Z,575
2017-05-12T14:30:15.918Z,570
2017-05-12T14:31:25.953Z,530
2017-05-12T14:32:35.993Z,470
2017-05-12T14:33:46.023Z,440
2017-05-12T14:34:55.422Z,470
2017-05-12T14:36:05.462Z,590
2017-05-12T14:37:14.880Z,640
2017-05-12T14:38:24.596Z,755
2017-05-12T14:39:34.324Z,835
2017-05-12T14:40:44.037Z,815
2017-05-12T14:41:53.132Z,765
2017-05-12T14:43:03.166Z,2025
2017-05-12T14:44:12.882Z,805
2017-05-12T14:45:22.286Z,1550
2017-05-12T14:46:32.323Z,1365
2017-05-12T14:47:42.358Z,1780
2017-05-12T14:48:51.449Z,2115
2017-05-12T14:50:01.173Z,670
2017-05-12T14:51:10.583Z,660
2017-05-12T14:52:19.990Z,645
2017-05-12T14:53:30.016Z,630
2017-05-12T14:54:40.368Z,640
2017-05-12T14:55:49.158Z,670
2017-05-12T14:56:59.236Z,690
2017-05-12T14:58:08.960Z,700
2017-05-12T14:59:18.689Z,740
2017-05-12T15:00:28.094Z,890
2017-05-12T15:01:38.129Z,1690
2017-05-12T15:02:47.855Z,1820
2017-05-12T15:03:57.576Z,925
2017-05-12T15:05:06.667Z,905
2017-05-12T15:06:17.016Z,735
2017-05-12T15:07:26.738Z,685
2017-05-12T15:08:36.462Z,685
2017-05-12T15:09:45.867Z,730
2017-05-12T15:10:55.586Z,830
2017-05-12T15:12:05.306Z,2295
2017-05-12T15:13:15.032Z,2380
2017-05-12T15:14:25.066Z,1210
2017-05-12T15:15:34.158Z,2210
2017-05-12T15:16:43.569Z,2400
2017-05-12T15:17:52.657Z,1815
2017-05-12T15:19:02.693Z,1520
2017-05-12T15:20:11.796Z,1215
2017-05-12T15:21:20.894Z,940
2017-05-12T15:22:30.308Z,870
2017-05-12T15:23:39.721Z,820
2017-05-12T15:24:49.131Z,760
2017-05-12T15:25:59.484Z,720
2017-05-12T15:27:09.529Z,720
2017-05-12T15:28:18.625Z,730
2017-05-12T15:29:28.668Z,735
2017-05-12T15:30:38.389Z,740
2017-05-12T15:31:47.834Z,755
2017-05-12T15:32:57.239Z,740
2017-05-12T15:34:07.591Z,675
2017-05-12T15:35:17.006Z,620
2017-05-12T15:36:26.738Z,585
2017-05-12T15:37:36.453Z,625
2017-05-12T15:38:46.168Z,610
2017-05-12T15:39:56.516Z,605
2017-05-12T15:41:06.239Z,595
2017-05-12T15:42:15.960Z,590
2017-05-12T15:43:26.002Z,575
2017-05-12T15:44:36.041Z,535
2017-05-12T15:45:46.094Z,545
2017-05-12T15:46:56.128Z,570
2017-05-12T15:48:06.169Z,580
2017-05-12T15:49:15.892Z,560
2017-05-12T15:50:25.928Z,490
2017-05-12T15:51:35.972Z,405
2017-05-12T15:52:45.703Z,365
2017-05-12T15:53:55.427Z,335
2017-05-12T15:55:05.148Z,315
2017-05-12T15:56:15.501Z,305
2017-05-12T15:57:24.899Z,315
2017-05-12T15:58:34.307Z,355
2017-05-12T15:59:44.346Z,385
2017-05-12T16:00:54.064Z,440
2017-05-12T16:02:03.783Z,485
2017-05-12T16:03:13.502Z,515
2017-05-12T16:04:23.535Z,515
2017-05-12T16:05:32.941Z,480
2017-05-12T16:06:42.655Z,430
2017-05-12T16:07:52.068Z,395
2017-05-12T16:09:02.106Z,370
2017-05-12T16:10:12.146Z,355
2017-05-12T16:11:21.554Z,350
2017-05-12T16:12:31.591Z,360